sensor_id;sensor_type;location;lat;lon;timestamp;pressure;altitude;pressure_sealevel;temperature;humidity
73338;BME280;61575;49.908;35.556;2022-07-06T00:02:48;99228.09;;;22.22;64.01
73338;BME280;61575;49.908;35.556;2022-07-06T00:05:51;99219.09;;;22.22;63.94
73338;BME280;61575;49.908;35.556;2022-07-06T00:08:52;99218.56;;;22.08;64.24
73338;BME280;61575;49.908;35.556;2022-07-06T00:11:54;99222.47;;;22.12;63.91
73338;BME280;61575;49.908;35.556;2022-07-06T00:14:56;99212.59;;;22.11;64.07
73338;BME280;61575;49.908;35.556;2022-07-06T00:17:58;99217.25;;;22.11;64.15
73338;BME280;61575;49.908;35.556;2022-07-06T00:21:00;99222.13;;;22.09;64.30
73338;BME280;61575;49.908;35.556;2022-07-06T00:24:02;99222.03;;;22.04;64.24
73338;BME280;61575;49.908;35.556;2022-07-06T00:27:04;99222.47;;;22.01;64.41
73338;BME280;61575;49.908;35.556;2022-07-06T00:30:07;99225.47;;;21.99;64.51
73338;BME280;61575;49.908;35.556;2022-07-06T00:33:09;99225.69;;;21.97;64.54
73338;BME280;61575;49.908;35.556;2022-07-06T00:36:11;99227.00;;;21.95;64.50
73338;BME280;61575;49.908;35.556;2022-07-06T00:39:13;99231.88;;;21.93;64.70
73338;BME280;61575;49.908;35.556;2022-07-06T00:42:15;99220.38;;;21.91;65.08
73338;BME280;61575;49.908;35.556;2022-07-06T00:45:17;99230.47;;;21.90;64.89
73338;BME280;61575;49.908;35.556;2022-07-06T00:48:20;99232.38;;;21.90;64.77
73338;BME280;61575;49.908;35.556;2022-07-06T00:51:27;99216.25;;;21.88;64.97
73338;BME280;61575;49.908;35.556;2022-07-06T00:54:31;99223.00;;;21.86;65.20
73338;BME280;61575;49.908;35.556;2022-07-06T00:57:33;99219.94;;;21.82;65.28
73338;BME280;61575;49.908;35.556;2022-07-06T01:00:36;99218.28;;;21.81;65.51
73338;BME280;61575;49.908;35.556;2022-07-06T01:03:38;99209.75;;;21.78;65.50
73338;BME280;61575;49.908;35.556;2022-07-06T01:06:40;99209.16;;;21.76;65.57
73338;BME280;61575;49.908;35.556;2022-07-06T01:09:42;99212.38;;;21.73;65.70
73338;BME280;61575;49.908;35.556;2022-07-06T01:12:47;99213.47;;;21.72;66.08
73338;BME280;61575;49.908;35.556;2022-07-06T01:15:49;99221.28;;;21.68;66.02
73338;BME280;61575;49.908;35.556;2022-07-06T01:18:52;99210.41;;;21.56;66.79
73338;BME280;61575;49.908;35.556;2022-07-06T01:21:54;99208.38;;;21.63;66.11
73338;BME280;61575;49.908;35.556;2022-07-06T01:24:55;99220.47;;;21.67;66.00
73338;BME280;61575;49.908;35.556;2022-07-06T01:27:57;99220.97;;;21.64;66.09
73338;BME280;61575;49.908;35.556;2022-07-06T01:30:59;99214.09;;;21.62;66.36
73338;BME280;61575;49.908;35.556;2022-07-06T01:34:01;99222.50;;;21.60;66.45
73338;BME280;61575;49.908;35.556;2022-07-06T01:37:03;99217.88;;;21.61;66.75
73338;BME280;61575;49.908;35.556;2022-07-06T01:40:07;99214.56;;;21.59;66.94
73338;BME280;61575;49.908;35.556;2022-07-06T01:43:10;99216.72;;;21.57;67.00
73338;BME280;61575;49.908;35.556;2022-07-06T01:46:12;99218.88;;;21.43;67.76
73338;BME280;61575;49.908;35.556;2022-07-06T01:49:14;99216.50;;;21.47;67.09
73338;BME280;61575;49.908;35.556;2022-07-06T01:52:16;99212.47;;;21.49;66.90
73338;BME280;61575;49.908;35.556;2022-07-06T01:55:18;99221.47;;;21.50;66.94
73338;BME280;61575;49.908;35.556;2022-07-06T01:58:20;99215.78;;;21.51;67.07
73338;BME280;61575;49.908;35.556;2022-07-06T02:01:23;99219.34;;;21.40;67.65
73338;BME280;61575;49.908;35.556;2022-07-06T02:04:25;99219.47;;;21.45;67.21
73338;BME280;61575;49.908;35.556;2022-07-06T02:07:27;99228.47;;;21.46;67.11
73338;BME280;61575;49.908;35.556;2022-07-06T02:10:29;99226.09;;;21.49;67.57
73338;BME280;61575;49.908;35.556;2022-07-06T02:13:31;99222.91;;;21.41;67.79
73338;BME280;61575;49.908;35.556;2022-07-06T02:16:35;99228.34;;;21.52;67.29
73338;BME280;61575;49.908;35.556;2022-07-06T02:19:36;99229.75;;;21.55;67.55
73338;BME280;61575;49.908;35.556;2022-07-06T02:22:39;99224.41;;;21.60;67.23
73338;BME280;61575;49.908;35.556;2022-07-06T02:25:41;99225.81;;;21.62;67.35
73338;BME280;61575;49.908;35.556;2022-07-06T02:28:44;99231.38;;;21.67;67.69
73338;BME280;61575;49.908;35.556;2022-07-06T02:31:48;99224.13;;;21.73;67.82
73338;BME280;61575;49.908;35.556;2022-07-06T02:34:50;99224.47;;;21.77;67.82
73338;BME280;61575;49.908;35.556;2022-07-06T02:37:53;99227.31;;;21.82;67.92
73338;BME280;61575;49.908;35.556;2022-07-06T02:40:55;99221.47;;;21.90;68.15
73338;BME280;61575;49.908;35.556;2022-07-06T02:43:57;99219.66;;;21.95;68.15
73338;BME280;61575;49.908;35.556;2022-07-06T02:46:59;99229.13;;;22.05;68.06
73338;BME280;61575;49.908;35.556;2022-07-06T02:53:03;99226.19;;;22.23;68.06
73338;BME280;61575;49.908;35.556;2022-07-06T02:56:06;99237.88;;;22.35;67.55
73338;BME280;61575;49.908;35.556;2022-07-06T02:59:09;99228.56;;;22.48;67.10
73338;BME280;61575;49.908;35.556;2022-07-06T03:02:16;99225.25;;;22.62;66.34
73338;BME280;61575;49.908;35.556;2022-07-06T03:05:19;99235.00;;;22.75;65.54
73338;BME280;61575;49.908;35.556;2022-07-06T03:08:21;99228.66;;;22.86;65.08
73338;BME280;61575;49.908;35.556;2022-07-06T03:11:24;99231.56;;;22.97;64.97
73338;BME280;61575;49.908;35.556;2022-07-06T03:14:26;99233.34;;;23.08;64.04
73338;BME280;61575;49.908;35.556;2022-07-06T03:17:28;99231.03;;;23.16;63.12
73338;BME280;61575;49.908;35.556;2022-07-06T03:20:31;99224.03;;;23.25;62.48
73338;BME280;61575;49.908;35.556;2022-07-06T03:23:33;99226.34;;;23.34;61.99
73338;BME280;61575;49.908;35.556;2022-07-06T03:26:36;99221.84;;;23.44;61.52
73338;BME280;61575;49.908;35.556;2022-07-06T03:29:38;99234.00;;;23.53;61.28
73338;BME280;61575;49.908;35.556;2022-07-06T03:32:40;99231.41;;;23.64;60.63
73338;BME280;61575;49.908;35.556;2022-07-06T03:35:43;99230.72;;;23.73;60.40
73338;BME280;61575;49.908;35.556;2022-07-06T03:38:46;99232.81;;;23.88;60.33
73338;BME280;61575;49.908;35.556;2022-07-06T03:41:48;99232.41;;;24.01;59.78
73338;BME280;61575;49.908;35.556;2022-07-06T03:44:53;99230.34;;;24.13;59.04
73338;BME280;61575;49.908;35.556;2022-07-06T03:47:55;99233.69;;;24.20;58.71
73338;BME280;61575;49.908;35.556;2022-07-06T03:50:57;99238.84;;;24.39;57.67
73338;BME280;61575;49.908;35.556;2022-07-06T03:53:59;99232.97;;;24.57;57.32
73338;BME280;61575;49.908;35.556;2022-07-06T03:57:01;99226.75;;;24.67;57.29
73338;BME280;61575;49.908;35.556;2022-07-06T04:00:05;99231.84;;;24.85;56.69
73338;BME280;61575;49.908;35.556;2022-07-06T04:03:14;99235.53;;;25.01;55.82
73338;BME280;61575;49.908;35.556;2022-07-06T04:06:22;99235.09;;;25.19;55.38
73338;BME280;61575;49.908;35.556;2022-07-06T04:09:24;99238.78;;;25.40;55.07
73338;BME280;61575;49.908;35.556;2022-07-06T04:12:27;99236.41;;;25.59;53.84
73338;BME280;61575;49.908;35.556;2022-07-06T04:15:29;99237.59;;;25.73;53.40
73338;BME280;61575;49.908;35.556;2022-07-06T04:18:31;99231.09;;;25.94;53.12
73338;BME280;61575;49.908;35.556;2022-07-06T04:21:33;99228.38;;;26.20;52.93
73338;BME280;61575;49.908;35.556;2022-07-06T04:24:36;99224.31;;;26.48;52.40
73338;BME280;61575;49.908;35.556;2022-07-06T04:27:38;99219.38;;;26.70;51.64
73338;BME280;61575;49.908;35.556;2022-07-06T04:30:40;99220.75;;;26.98;50.50
73338;BME280;61575;49.908;35.556;2022-07-06T04:33:46;99227.34;;;27.12;48.75
73338;BME280;61575;49.908;35.556;2022-07-06T04:36:48;99225.09;;;27.29;48.70
73338;BME280;61575;49.908;35.556;2022-07-06T04:39:50;99222.53;;;27.63;48.32
73338;BME280;61575;49.908;35.556;2022-07-06T04:42:52;99220.22;;;27.86;47.88
73338;BME280;61575;49.908;35.556;2022-07-06T04:45:55;99224.25;;;28.03;47.85
73338;BME280;61575;49.908;35.556;2022-07-06T04:48:57;99216.72;;;28.24;47.02
73338;BME280;61575;49.908;35.556;2022-07-06T04:52:04;99222.06;;;28.50;46.41
73338;BME280;61575;49.908;35.556;2022-07-06T04:55:07;99221.59;;;28.72;45.91
73338;BME280;61575;49.908;35.556;2022-07-06T04:58:10;99216.19;;;28.95;45.21
73338;BME280;61575;49.908;35.556;2022-07-06T05:01:13;99211.81;;;29.18;44.68
73338;BME280;61575;49.908;35.556;2022-07-06T05:04:16;99222.34;;;29.40;44.73
73338;BME280;61575;49.908;35.556;2022-07-06T05:07:21;99223.59;;;29.53;43.27
73338;BME280;61575;49.908;35.556;2022-07-06T05:10:24;99214.22;;;29.73;43.58
73338;BME280;61575;49.908;35.556;2022-07-06T05:13:29;99217.09;;;29.86;42.98
73338;BME280;61575;49.908;35.556;2022-07-06T05:16:31;99213.22;;;29.87;42.44
73338;BME280;61575;49.908;35.556;2022-07-06T05:19:34;99210.34;;;30.16;41.76
73338;BME280;61575;49.908;35.556;2022-07-06T05:22:35;99218.03;;;30.19;42.01
73338;BME280;61575;49.908;35.556;2022-07-06T05:25:47;99206.44;;;30.36;41.51
73338;BME280;61575;49.908;35.556;2022-07-06T05:28:49;99205.75;;;30.44;41.79
73338;BME280;61575;49.908;35.556;2022-07-06T05:31:55;99203.22;;;30.67;41.57
73338;BME280;61575;49.908;35.556;2022-07-06T05:34:57;99207.44;;;30.78;40.91
73338;BME280;61575;49.908;35.556;2022-07-06T05:38:20;99207.09;;;30.98;40.94
73338;BME280;61575;49.908;35.556;2022-07-06T05:41:23;99208.25;;;31.24;40.39
73338;BME280;61575;49.908;35.556;2022-07-06T05:44:33;99206.22;;;31.44;39.19
73338;BME280;61575;49.908;35.556;2022-07-06T05:47:35;99205.38;;;31.57;38.75
73338;BME280;61575;49.908;35.556;2022-07-06T05:50:56;99199.22;;;31.87;38.01
73338;BME280;61575;49.908;35.556;2022-07-06T05:53:59;99197.88;;;31.99;38.67
73338;BME280;61575;49.908;35.556;2022-07-06T05:57:01;99200.44;;;31.95;38.75
73338;BME280;61575;49.908;35.556;2022-07-06T06:00:07;99196.38;;;32.15;37.97
73338;BME280;61575;49.908;35.556;2022-07-06T06:03:16;99192.97;;;32.18;37.61
73338;BME280;61575;49.908;35.556;2022-07-06T06:06:21;99197.19;;;32.29;37.14
73338;BME280;61575;49.908;35.556;2022-07-06T06:09:23;99195.38;;;32.47;36.77
73338;BME280;61575;49.908;35.556;2022-07-06T06:12:26;99184.91;;;32.66;37.91
73338;BME280;61575;49.908;35.556;2022-07-06T06:15:28;99188.13;;;32.82;36.88
73338;BME280;61575;49.908;35.556;2022-07-06T06:18:30;99189.31;;;32.90;36.11
73338;BME280;61575;49.908;35.556;2022-07-06T06:21:39;99185.84;;;33.15;36.58
73338;BME280;61575;49.908;35.556;2022-07-06T06:24:41;99187.31;;;33.43;36.27
73338;BME280;61575;49.908;35.556;2022-07-06T06:27:43;99192.88;;;33.52;34.85
73338;BME280;61575;49.908;35.556;2022-07-06T06:30:45;99187.53;;;33.64;34.25
73338;BME280;61575;49.908;35.556;2022-07-06T06:33:47;99190.38;;;33.82;34.55
73338;BME280;61575;49.908;35.556;2022-07-06T06:36:49;99186.63;;;33.95;34.38
73338;BME280;61575;49.908;35.556;2022-07-06T06:39:51;99188.94;;;34.10;34.75
73338;BME280;61575;49.908;35.556;2022-07-06T06:42:53;99188.28;;;34.13;33.66
73338;BME280;61575;49.908;35.556;2022-07-06T06:45:55;99189.44;;;34.21;33.89
73338;BME280;61575;49.908;35.556;2022-07-06T06:48:57;99192.06;;;34.17;34.37
73338;BME280;61575;49.908;35.556;2022-07-06T06:51:59;99197.97;;;34.33;34.15
73338;BME280;61575;49.908;35.556;2022-07-06T06:55:22;99199.78;;;34.37;33.26
73338;BME280;61575;49.908;35.556;2022-07-06T06:58:25;99194.38;;;34.41;33.92
73338;BME280;61575;49.908;35.556;2022-07-06T07:01:28;99193.22;;;34.51;32.55
73338;BME280;61575;49.908;35.556;2022-07-06T07:04:31;99177.47;;;34.72;33.40
73338;BME280;61575;49.908;35.556;2022-07-06T07:07:33;99185.69;;;34.60;32.74
73338;BME280;61575;49.908;35.556;2022-07-06T07:10:35;99187.63;;;34.77;33.16
73338;BME280;61575;49.908;35.556;2022-07-06T07:13:37;99187.56;;;35.02;32.74
73338;BME280;61575;49.908;35.556;2022-07-06T07:16:42;99186.91;;;35.05;32.62
73338;BME280;61575;49.908;35.556;2022-07-06T07:19:44;99186.13;;;34.96;32.50
73338;BME280;61575;49.908;35.556;2022-07-06T07:22:46;99178.31;;;35.28;32.21
73338;BME280;61575;49.908;35.556;2022-07-06T07:25:48;99187.63;;;35.41;32.46
73338;BME280;61575;49.908;35.556;2022-07-06T07:28:51;99181.22;;;35.40;30.40
73338;BME280;61575;49.908;35.556;2022-07-06T07:31:53;99177.88;;;35.55;30.45
73338;BME280;61575;49.908;35.556;2022-07-06T07:34:55;99178.63;;;35.35;30.53
73338;BME280;61575;49.908;35.556;2022-07-06T07:37:57;99188.72;;;35.48;30.24
73338;BME280;61575;49.908;35.556;2022-07-06T07:40:59;99188.28;;;35.67;31.31
73338;BME280;61575;49.908;35.556;2022-07-06T07:44:01;99180.03;;;35.79;30.44
73338;BME280;61575;49.908;35.556;2022-07-06T07:47:03;99176.53;;;35.91;30.44
73338;BME280;61575;49.908;35.556;2022-07-06T07:50:05;99177.91;;;35.76;29.74
73338;BME280;61575;49.908;35.556;2022-07-06T07:53:09;99179.44;;;35.94;29.96
73338;BME280;61575;49.908;35.556;2022-07-06T07:56:11;99192.94;;;35.92;29.77
73338;BME280;61575;49.908;35.556;2022-07-06T07:59:13;99180.59;;;35.93;29.27
73338;BME280;61575;49.908;35.556;2022-07-06T08:02:16;99171.50;;;36.05;29.50
73338;BME280;61575;49.908;35.556;2022-07-06T08:05:18;99176.19;;;36.13;29.67
73338;BME280;61575;49.908;35.556;2022-07-06T08:08:20;99181.50;;;36.06;29.32
73338;BME280;61575;49.908;35.556;2022-07-06T08:11:23;99184.84;;;35.99;29.05
73338;BME280;61575;49.908;35.556;2022-07-06T08:14:26;99181.22;;;35.99;28.22
73338;BME280;61575;49.908;35.556;2022-07-06T08:17:28;99177.56;;;36.07;28.83
73338;BME280;61575;49.908;35.556;2022-07-06T08:20:30;99181.78;;;36.13;30.00
73338;BME280;61575;49.908;35.556;2022-07-06T08:23:32;99177.06;;;36.26;29.14
73338;BME280;61575;49.908;35.556;2022-07-06T08:26:36;99180.38;;;36.28;28.24
73338;BME280;61575;49.908;35.556;2022-07-06T08:29:39;99175.09;;;36.26;28.74
73338;BME280;61575;49.908;35.556;2022-07-06T08:32:42;99174.09;;;36.10;28.45
73338;BME280;61575;49.908;35.556;2022-07-06T08:36:04;99178.31;;;36.37;28.46
73338;BME280;61575;49.908;35.556;2022-07-06T08:39:07;99175.53;;;36.49;27.81
73338;BME280;61575;49.908;35.556;2022-07-06T08:42:09;99173.69;;;36.53;27.10
73338;BME280;61575;49.908;35.556;2022-07-06T08:45:12;99167.69;;;36.63;27.51
73338;BME280;61575;49.908;35.556;2022-07-06T08:48:15;99173.13;;;36.60;28.10
73338;BME280;61575;49.908;35.556;2022-07-06T08:51:18;99171.06;;;36.69;27.98
73338;BME280;61575;49.908;35.556;2022-07-06T08:54:28;99164.16;;;36.75;26.96
73338;BME280;61575;49.908;35.556;2022-07-06T08:57:31;99169.69;;;36.42;27.79
73338;BME280;61575;49.908;35.556;2022-07-06T09:00:33;99168.66;;;36.47;27.45
73338;BME280;61575;49.908;35.556;2022-07-06T09:03:36;99175.19;;;36.51;28.24
73338;BME280;61575;49.908;35.556;2022-07-06T09:06:42;99164.53;;;36.65;27.79
73338;BME280;61575;49.908;35.556;2022-07-06T09:09:44;99166.44;;;36.73;26.86
73338;BME280;61575;49.908;35.556;2022-07-06T09:12:47;99165.56;;;36.81;27.77
73338;BME280;61575;49.908;35.556;2022-07-06T09:15:49;99162.69;;;37.14;27.60
73338;BME280;61575;49.908;35.556;2022-07-06T09:19:07;99169.50;;;37.25;27.46
73338;BME280;61575;49.908;35.556;2022-07-06T09:22:09;99163.56;;;37.39;27.39
73338;BME280;61575;49.908;35.556;2022-07-06T09:25:13;99158.19;;;37.46;26.95
73338;BME280;61575;49.908;35.556;2022-07-06T09:28:15;99160.72;;;37.15;27.37
73338;BME280;61575;49.908;35.556;2022-07-06T09:31:17;99152.25;;;37.23;26.78
73338;BME280;61575;49.908;35.556;2022-07-06T09:34:20;99146.50;;;37.08;27.02
73338;BME280;61575;49.908;35.556;2022-07-06T09:37:22;99152.69;;;37.13;26.54
73338;BME280;61575;49.908;35.556;2022-07-06T09:40:29;99152.50;;;37.43;27.06
73338;BME280;61575;49.908;35.556;2022-07-06T09:43:32;99149.56;;;37.27;27.34
73338;BME280;61575;49.908;35.556;2022-07-06T09:46:41;99147.59;;;37.40;26.58
73338;BME280;61575;49.908;35.556;2022-07-06T09:49:45;99142.34;;;37.50;25.56
73338;BME280;61575;49.908;35.556;2022-07-06T09:52:54;99141.78;;;37.45;25.76
73338;BME280;61575;49.908;35.556;2022-07-06T09:55:57;99139.78;;;37.45;25.85
73338;BME280;61575;49.908;35.556;2022-07-06T09:59:00;99148.19;;;37.70;26.40
73338;BME280;61575;49.908;35.556;2022-07-06T10:02:06;99137.22;;;37.52;23.69
73338;BME280;61575;49.908;35.556;2022-07-06T10:05:08;99133.41;;;38.09;24.80
73338;BME280;61575;49.908;35.556;2022-07-06T10:08:10;99130.84;;;38.16;24.23
73338;BME280;61575;49.908;35.556;2022-07-06T10:11:12;99144.53;;;38.34;23.46
73338;BME280;61575;49.908;35.556;2022-07-06T10:14:31;99141.28;;;38.32;23.43
73338;BME280;61575;49.908;35.556;2022-07-06T10:17:33;99142.41;;;38.03;23.55
73338;BME280;61575;49.908;35.556;2022-07-06T10:20:37;99138.78;;;38.02;24.29
73338;BME280;61575;49.908;35.556;2022-07-06T10:23:40;99137.19;;;37.89;24.68
73338;BME280;61575;49.908;35.556;2022-07-06T10:26:42;99131.25;;;37.90;24.23
73338;BME280;61575;49.908;35.556;2022-07-06T10:29:45;99130.31;;;37.86;24.39
73338;BME280;61575;49.908;35.556;2022-07-06T10:32:49;99134.09;;;38.06;24.95
73338;BME280;61575;49.908;35.556;2022-07-06T10:35:55;99128.53;;;37.94;25.09
73338;BME280;61575;49.908;35.556;2022-07-06T10:39:03;99129.38;;;37.82;24.32
73338;BME280;61575;49.908;35.556;2022-07-06T10:42:45;99119.66;;;38.04;24.67
73338;BME280;61575;49.908;35.556;2022-07-06T10:48:49;99122.13;;;38.34;23.62
73338;BME280;61575;49.908;35.556;2022-07-06T10:51:52;99113.22;;;38.16;24.13
73338;BME280;61575;49.908;35.556;2022-07-06T10:54:56;99106.97;;;37.95;24.20
73338;BME280;61575;49.908;35.556;2022-07-06T10:57:59;99105.50;;;38.13;24.26
73338;BME280;61575;49.908;35.556;2022-07-06T11:01:03;99105.28;;;38.06;25.05
73338;BME280;61575;49.908;35.556;2022-07-06T11:04:08;99096.53;;;38.19;24.84
73338;BME280;61575;49.908;35.556;2022-07-06T11:07:13;99098.97;;;38.21;24.59
73338;BME280;61575;49.908;35.556;2022-07-06T11:10:15;99098.22;;;37.96;26.28
73338;BME280;61575;49.908;35.556;2022-07-06T11:13:27;99088.91;;;37.92;26.16
73338;BME280;61575;49.908;35.556;2022-07-06T11:16:31;99085.69;;;37.78;24.98
73338;BME280;61575;49.908;35.556;2022-07-06T11:19:38;99078.69;;;37.72;25.25
73338;BME280;61575;49.908;35.556;2022-07-06T11:22:49;99095.19;;;37.24;26.35
73338;BME280;61575;49.908;35.556;2022-07-06T11:25:52;99071.41;;;37.31;26.36
73338;BME280;61575;49.908;35.556;2022-07-06T11:28:58;99077.19;;;37.62;27.47
73338;BME280;61575;49.908;35.556;2022-07-06T11:32:01;99082.19;;;37.56;25.48
73338;BME280;61575;49.908;35.556;2022-07-06T11:35:05;99081.97;;;37.49;25.63
73338;BME280;61575;49.908;35.556;2022-07-06T11:38:26;99070.25;;;37.32;24.97
73338;BME280;61575;49.908;35.556;2022-07-06T11:41:28;99068.25;;;37.44;24.89
73338;BME280;61575;49.908;35.556;2022-07-06T11:44:30;99067.06;;;37.57;24.43
73338;BME280;61575;49.908;35.556;2022-07-06T11:47:33;99069.38;;;37.55;24.41
73338;BME280;61575;49.908;35.556;2022-07-06T11:50:35;99054.91;;;37.78;24.73
73338;BME280;61575;49.908;35.556;2022-07-06T11:53:42;99048.75;;;38.00;24.06
73338;BME280;61575;49.908;35.556;2022-07-06T11:56:50;99055.19;;;38.29;24.05
73338;BME280;61575;49.908;35.556;2022-07-06T12:00:06;99052.47;;;38.04;24.38
73338;BME280;61575;49.908;35.556;2022-07-06T12:03:18;99051.97;;;38.14;23.79
73338;BME280;61575;49.908;35.556;2022-07-06T12:06:27;99051.97;;;37.86;24.12
73338;BME280;61575;49.908;35.556;2022-07-06T12:09:34;99040.81;;;37.74;23.87
73338;BME280;61575;49.908;35.556;2022-07-06T12:12:39;99041.69;;;37.90;24.85
73338;BME280;61575;49.908;35.556;2022-07-06T12:15:41;99048.56;;;37.93;24.20
73338;BME280;61575;49.908;35.556;2022-07-06T12:18:45;99041.91;;;38.26;24.43
73338;BME280;61575;49.908;35.556;2022-07-06T12:21:50;99034.03;;;38.31;24.13
73338;BME280;61575;49.908;35.556;2022-07-06T12:24:53;99041.53;;;37.99;23.55
73338;BME280;61575;49.908;35.556;2022-07-06T12:27:57;99039.66;;;38.03;24.25
73338;BME280;61575;49.908;35.556;2022-07-06T12:31:00;99045.34;;;37.79;23.94
73338;BME280;61575;49.908;35.556;2022-07-06T12:34:04;99040.25;;;37.56;24.60
73338;BME280;61575;49.908;35.556;2022-07-06T12:37:08;99035.47;;;37.69;24.23
73338;BME280;61575;49.908;35.556;2022-07-06T12:40:14;99028.53;;;37.79;24.21
73338;BME280;61575;49.908;35.556;2022-07-06T12:43:38;99028.00;;;37.73;23.45
73338;BME280;61575;49.908;35.556;2022-07-06T12:46:42;99024.88;;;37.50;24.96
73338;BME280;61575;49.908;35.556;2022-07-06T12:49:44;99026.50;;;37.51;24.50
73338;BME280;61575;49.908;35.556;2022-07-06T12:52:46;99023.72;;;37.51;25.99
73338;BME280;61575;49.908;35.556;2022-07-06T12:55:48;99021.66;;;37.36;26.59
73338;BME280;61575;49.908;35.556;2022-07-06T12:59:00;99022.31;;;37.45;24.83
73338;BME280;61575;49.908;35.556;2022-07-06T13:02:03;99011.44;;;37.68;25.27
73338;BME280;61575;49.908;35.556;2022-07-06T13:05:10;99013.41;;;37.68;23.86
73338;BME280;61575;49.908;35.556;2022-07-06T13:08:12;99009.47;;;37.56;24.65
73338;BME280;61575;49.908;35.556;2022-07-06T13:11:14;99005.16;;;37.71;24.51
73338;BME280;61575;49.908;35.556;2022-07-06T13:14:17;99011.56;;;37.72;25.10
73338;BME280;61575;49.908;35.556;2022-07-06T13:17:20;99005.50;;;37.57;25.38
73338;BME280;61575;49.908;35.556;2022-07-06T13:20:22;99001.72;;;37.38;26.54
73338;BME280;61575;49.908;35.556;2022-07-06T13:23:23;99007.22;;;37.34;26.44
73338;BME280;61575;49.908;35.556;2022-07-06T13:26:26;99004.97;;;37.40;25.35
73338;BME280;61575;49.908;35.556;2022-07-06T13:29:28;98989.69;;;37.49;25.17
73338;BME280;61575;49.908;35.556;2022-07-06T13:32:30;98988.94;;;37.65;26.70
73338;BME280;61575;49.908;35.556;2022-07-06T13:35:32;98996.03;;;37.74;24.72
73338;BME280;61575;49.908;35.556;2022-07-06T13:38:34;98985.09;;;37.69;24.26
73338;BME280;61575;49.908;35.556;2022-07-06T13:41:36;98983.06;;;37.82;24.19
73338;BME280;61575;49.908;35.556;2022-07-06T13:44:38;98989.13;;;37.84;24.98
73338;BME280;61575;49.908;35.556;2022-07-06T13:47:50;98979.59;;;37.73;24.71
73338;BME280;61575;49.908;35.556;2022-07-06T13:50:52;98976.91;;;37.76;24.63
73338;BME280;61575;49.908;35.556;2022-07-06T13:53:54;98974.81;;;37.73;24.83
73338;BME280;61575;49.908;35.556;2022-07-06T13:56:57;98971.50;;;37.55;24.23
73338;BME280;61575;49.908;35.556;2022-07-06T13:59:59;98967.22;;;37.46;24.56
73338;BME280;61575;49.908;35.556;2022-07-06T14:03:00;98968.47;;;37.48;24.73
73338;BME280;61575;49.908;35.556;2022-07-06T14:06:04;98972.66;;;37.54;25.01
73338;BME280;61575;49.908;35.556;2022-07-06T14:09:07;98965.44;;;37.53;24.06
73338;BME280;61575;49.908;35.556;2022-07-06T14:12:09;98963.94;;;37.44;24.36
73338;BME280;61575;49.908;35.556;2022-07-06T14:15:11;98953.97;;;37.31;24.59
73338;BME280;61575;49.908;35.556;2022-07-06T14:18:13;98956.66;;;37.27;23.85
73338;BME280;61575;49.908;35.556;2022-07-06T14:21:16;98959.69;;;37.10;25.14
73338;BME280;61575;49.908;35.556;2022-07-06T14:24:18;98956.66;;;37.15;24.94
73338;BME280;61575;49.908;35.556;2022-07-06T14:27:20;98943.03;;;37.25;24.62
73338;BME280;61575;49.908;35.556;2022-07-06T14:30:23;98940.25;;;37.25;25.00
73338;BME280;61575;49.908;35.556;2022-07-06T14:33:25;98949.56;;;37.29;24.09
73338;BME280;61575;49.908;35.556;2022-07-06T14:36:27;98937.44;;;37.25;23.92
73338;BME280;61575;49.908;35.556;2022-07-06T14:39:29;98937.44;;;37.13;24.05
73338;BME280;61575;49.908;35.556;2022-07-06T14:42:32;98937.31;;;37.34;25.11
73338;BME280;61575;49.908;35.556;2022-07-06T14:45:34;98943.34;;;37.36;24.72
73338;BME280;61575;49.908;35.556;2022-07-06T14:48:36;98933.59;;;37.58;23.97
73338;BME280;61575;49.908;35.556;2022-07-06T14:51:38;98930.78;;;37.70;24.26
73338;BME280;61575;49.908;35.556;2022-07-06T14:54:40;98934.88;;;37.60;24.65
73338;BME280;61575;49.908;35.556;2022-07-06T14:57:42;98932.94;;;34.95;37.47
73338;BME280;61575;49.908;35.556;2022-07-06T15:00:45;98920.47;;;33.26;37.58
73338;BME280;61575;49.908;35.556;2022-07-06T15:03:47;98937.41;;;32.81;37.54
73338;BME280;61575;49.908;35.556;2022-07-06T15:06:50;98934.47;;;32.78;36.41
73338;BME280;61575;49.908;35.556;2022-07-06T15:09:56;98940.38;;;32.94;34.66
73338;BME280;61575;49.908;35.556;2022-07-06T15:12:58;98928.66;;;33.14;33.99
73338;BME280;61575;49.908;35.556;2022-07-06T15:16:00;98927.88;;;33.31;33.21
73338;BME280;61575;49.908;35.556;2022-07-06T15:19:02;98929.63;;;33.70;32.26
73338;BME280;61575;49.908;35.556;2022-07-06T15:22:04;98924.97;;;34.08;31.47
73338;BME280;61575;49.908;35.556;2022-07-06T15:25:06;98933.66;;;34.54;29.96
73338;BME280;61575;49.908;35.556;2022-07-06T15:28:08;98930.25;;;34.78;29.82
73338;BME280;61575;49.908;35.556;2022-07-06T15:31:10;98924.25;;;34.96;29.57
73338;BME280;61575;49.908;35.556;2022-07-06T15:34:12;98918.88;;;35.12;29.29
73338;BME280;61575;49.908;35.556;2022-07-06T15:37:14;98915.34;;;35.24;29.54
73338;BME280;61575;49.908;35.556;2022-07-06T15:40:16;98914.66;;;35.27;29.12
73338;BME280;61575;49.908;35.556;2022-07-06T15:43:23;98910.13;;;35.22;28.56
73338;BME280;61575;49.908;35.556;2022-07-06T15:46:26;98915.50;;;35.06;29.29
73338;BME280;61575;49.908;35.556;2022-07-06T15:49:28;98912.97;;;34.93;29.81
73338;BME280;61575;49.908;35.556;2022-07-06T15:52:30;98910.13;;;34.72;30.30
73338;BME280;61575;49.908;35.556;2022-07-06T15:55:32;98913.50;;;34.57;30.32
73338;BME280;61575;49.908;35.556;2022-07-06T15:58:34;98916.03;;;34.41;30.78
73338;BME280;61575;49.908;35.556;2022-07-06T16:01:36;98906.59;;;34.25;31.01
73338;BME280;61575;49.908;35.556;2022-07-06T16:04:39;98907.78;;;34.15;31.44
73338;BME280;61575;49.908;35.556;2022-07-06T16:07:43;98908.13;;;34.05;31.12